sensor_id;sensor_type;location;lat;lon;timestamp;P1;durP1;ratioP1;P2;durP2;ratioP2
60312;SDS011;46158;52.850;6.970;2023-11-22T00:00:19;19.38;;;9.10;;
60312;SDS011;46158;52.850;6.970;2023-11-22T00:02:46;19.50;;;8.93;;
60312;SDS011;46158;52.850;6.970;2023-11-22T00:05:12;20.95;;;9.05;;
60312;SDS011;46158;52.850;6.970;2023-11-22T00:07:38;19.40;;;8.80;;
60312;SDS011;46158;52.850;6.970;2023-11-22T00:10:04;20.00;;;8.90;;
60312;SDS011;46158;52.850;6.970;2023-11-22T00:12:30;19.70;;;8.80;;
60312;SDS011;46158;52.850;6.970;2023-11-22T00:15:02;20.05;;;9.40;;
60312;SDS011;46158;52.850;6.970;2023-11-22T00:17:30;19.93;;;9.00;;
60312;SDS011;46158;52.850;6.970;2023-11-22T00:19:57;19.42;;;8.75;;
60312;SDS011;46158;52.850;6.970;2023-11-22T00:22:23;20.45;;;8.60;;
60312;SDS011;46158;52.850;6.970;2023-11-22T00:24:48;19.90;;;8.27;;
60312;SDS011;46158;52.850;6.970;2023-11-22T00:27:15;18.67;;;7.85;;
60312;SDS011;46158;52.850;6.970;2023-11-22T00:29:41;19.33;;;8.05;;
60312;SDS011;46158;52.850;6.970;2023-11-22T00:32:07;19.60;;;8.05;;
60312;SDS011;46158;52.850;6.970;2023-11-22T00:34:33;19.35;;;7.95;;
60312;SDS011;46158;52.850;6.970;2023-11-22T00:36:58;18.52;;;7.65;;
60312;SDS011;46158;52.850;6.970;2023-11-22T00:39:24;19.95;;;8.32;;
60312;SDS011;46158;52.850;6.970;2023-11-22T00:41:50;19.15;;;7.35;;
60312;SDS011;46158;52.850;6.970;2023-11-22T00:44:15;17.67;;;7.18;;
60312;SDS011;46158;52.850;6.970;2023-11-22T00:46:41;18.90;;;7.50;;
60312;SDS011;46158;52.850;6.970;2023-11-22T00:49:07;18.02;;;7.15;;
60312;SDS011;46158;52.850;6.970;2023-11-22T00:51:35;18.75;;;7.43;;
60312;SDS011;46158;52.850;6.970;2023-11-22T00:54:01;18.85;;;7.22;;
60312;SDS011;46158;52.850;6.970;2023-11-22T00:56:27;18.65;;;7.75;;
60312;SDS011;46158;52.850;6.970;2023-11-22T00:58:56;17.50;;;7.07;;
60312;SDS011;46158;52.850;6.970;2023-11-22T01:01:24;17.13;;;6.60;;
60312;SDS011;46158;52.850;6.970;2023-11-22T01:03:50;18.23;;;6.57;;
60312;SDS011;46158;52.850;6.970;2023-11-22T01:06:17;17.65;;;6.72;;
60312;SDS011;46158;52.850;6.970;2023-11-22T01:08:43;17.65;;;6.60;;
60312;SDS011;46158;52.850;6.970;2023-11-22T01:11:09;17.55;;;6.65;;
60312;SDS011;46158;52.850;6.970;2023-11-22T01:13:35;17.90;;;7.07;;
60312;SDS011;46158;52.850;6.970;2023-11-22T01:16:07;15.90;;;6.32;;
60312;SDS011;46158;52.850;6.970;2023-11-22T01:18:37;15.82;;;6.18;;
60312;SDS011;46158;52.850;6.970;2023-11-22T01:21:03;16.98;;;6.88;;
60312;SDS011;46158;52.850;6.970;2023-11-22T01:23:29;17.67;;;6.60;;
60312;SDS011;46158;52.850;6.970;2023-11-22T01:25:57;16.27;;;6.20;;
60312;SDS011;46158;52.850;6.970;2023-11-22T01:28:24;16.30;;;6.45;;
60312;SDS011;46158;52.850;6.970;2023-11-22T01:30:52;16.98;;;6.30;;
60312;SDS011;46158;52.850;6.970;2023-11-22T01:33:21;16.20;;;6.00;;
60312;SDS011;46158;52.850;6.970;2023-11-22T01:35:47;15.75;;;6.38;;
60312;SDS011;46158;52.850;6.970;2023-11-22T01:38:16;15.63;;;5.93;;
60312;SDS011;46158;52.850;6.970;2023-11-22T01:40:45;15.60;;;5.65;;
60312;SDS011;46158;52.850;6.970;2023-11-22T01:43:16;16.08;;;6.28;;
60312;SDS011;46158;52.850;6.970;2023-11-22T01:45:43;15.80;;;6.00;;
60312;SDS011;46158;52.850;6.970;2023-11-22T01:48:10;16.50;;;5.95;;
60312;SDS011;46158;52.850;6.970;2023-11-22T01:50:37;14.65;;;5.63;;
60312;SDS011;46158;52.850;6.970;2023-11-22T01:53:06;16.00;;;5.82;;
60312;SDS011;46158;52.850;6.970;2023-11-22T01:55:33;14.95;;;5.82;;
60312;SDS011;46158;52.850;6.970;2023-11-22T01:57:59;15.20;;;5.55;;
60312;SDS011;46158;52.850;6.970;2023-11-22T02:00:27;15.18;;;5.65;;
60312;SDS011;46158;52.850;6.970;2023-11-22T02:05:25;14.95;;;5.50;;
60312;SDS011;46158;52.850;6.970;2023-11-22T02:07:51;14.48;;;5.45;;
60312;SDS011;46158;52.850;6.970;2023-11-22T02:10:18;14.82;;;5.75;;
60312;SDS011;46158;52.850;6.970;2023-11-22T02:12:44;15.23;;;5.30;;
60312;SDS011;46158;52.850;6.970;2023-11-22T02:15:13;14.60;;;5.38;;
60312;SDS011;46158;52.850;6.970;2023-11-22T02:17:38;15.77;;;5.80;;
60312;SDS011;46158;52.850;6.970;2023-11-22T02:20:04;14.20;;;5.47;;
60312;SDS011;46158;52.850;6.970;2023-11-22T02:22:34;14.65;;;5.40;;
60312;SDS011;46158;52.850;6.970;2023-11-22T02:25:07;14.93;;;5.57;;
60312;SDS011;46158;52.850;6.970;2023-11-22T02:27:34;14.05;;;5.30;;
60312;SDS011;46158;52.850;6.970;2023-11-22T02:30:02;13.70;;;5.40;;
60312;SDS011;46158;52.850;6.970;2023-11-22T02:32:31;15.27;;;5.38;;
60312;SDS011;46158;52.850;6.970;2023-11-22T02:34:57;15.10;;;5.47;;
60312;SDS011;46158;52.850;6.970;2023-11-22T02:37:22;13.75;;;5.10;;
60312;SDS011;46158;52.850;6.970;2023-11-22T02:40:04;13.48;;;5.10;;
60312;SDS011;46158;52.850;6.970;2023-11-22T02:42:52;14.82;;;5.22;;
60312;SDS011;46158;52.850;6.970;2023-11-22T02:45:20;13.98;;;4.95;;
60312;SDS011;46158;52.850;6.970;2023-11-22T02:47:53;15.02;;;5.15;;
60312;SDS011;46158;52.850;6.970;2023-11-22T02:50:19;14.18;;;5.03;;
60312;SDS011;46158;52.850;6.970;2023-11-22T02:52:45;13.73;;;5.10;;
60312;SDS011;46158;52.850;6.970;2023-11-22T02:55:11;12.77;;;4.57;;
60312;SDS011;46158;52.850;6.970;2023-11-22T02:57:37;14.05;;;5.00;;
60312;SDS011;46158;52.850;6.970;2023-11-22T03:00:05;11.80;;;4.50;;
60312;SDS011;46158;52.850;6.970;2023-11-22T03:02:32;12.27;;;4.85;;
60312;SDS011;46158;52.850;6.970;2023-11-22T03:04:59;13.98;;;5.20;;
60312;SDS011;46158;52.850;6.970;2023-11-22T03:07:25;13.27;;;4.90;;
60312;SDS011;46158;52.850;6.970;2023-11-22T03:09:52;12.75;;;4.78;;
60312;SDS011;46158;52.850;6.970;2023-11-22T03:12:18;13.98;;;5.15;;
60312;SDS011;46158;52.850;6.970;2023-11-22T03:14:45;11.90;;;4.55;;
60312;SDS011;46158;52.850;6.970;2023-11-22T03:17:11;13.50;;;5.07;;
60312;SDS011;46158;52.850;6.970;2023-11-22T03:19:38;13.48;;;4.80;;
60312;SDS011;46158;52.850;6.970;2023-11-22T03:22:05;14.75;;;4.90;;
60312;SDS011;46158;52.850;6.970;2023-11-22T03:24:32;11.63;;;4.28;;
60312;SDS011;46158;52.850;6.970;2023-11-22T03:27:02;13.73;;;4.80;;
60312;SDS011;46158;52.850;6.970;2023-11-22T03:29:28;13.13;;;4.90;;
60312;SDS011;46158;52.850;6.970;2023-11-22T03:31:54;12.25;;;4.72;;
60312;SDS011;46158;52.850;6.970;2023-11-22T03:34:20;14.35;;;4.68;;
60312;SDS011;46158;52.850;6.970;2023-11-22T03:36:46;13.88;;;4.75;;
60312;SDS011;46158;52.850;6.970;2023-11-22T03:39:12;13.25;;;4.80;;
60312;SDS011;46158;52.850;6.970;2023-11-22T03:41:41;13.20;;;4.63;;
60312;SDS011;46158;52.850;6.970;2023-11-22T03:44:07;13.27;;;4.88;;
60312;SDS011;46158;52.850;6.970;2023-11-22T03:46:36;12.77;;;4.72;;
60312;SDS011;46158;52.850;6.970;2023-11-22T03:49:03;13.05;;;4.43;;
60312;SDS011;46158;52.850;6.970;2023-11-22T03:51:31;12.73;;;4.70;;
60312;SDS011;46158;52.850;6.970;2023-11-22T03:53:57;11.60;;;4.50;;
60312;SDS011;46158;52.850;6.970;2023-11-22T03:56:23;12.23;;;4.47;;
60312;SDS011;46158;52.850;6.970;2023-11-22T03:58:49;11.02;;;4.63;;
60312;SDS011;46158;52.850;6.970;2023-11-22T04:01:14;12.90;;;4.82;;
60312;SDS011;46158;52.850;6.970;2023-11-22T04:03:44;12.15;;;4.30;;
60312;SDS011;46158;52.850;6.970;2023-11-22T04:06:10;11.90;;;4.40;;
60312;SDS011;46158;52.850;6.970;2023-11-22T04:08:36;11.85;;;4.20;;
60312;SDS011;46158;52.850;6.970;2023-11-22T04:11:03;12.13;;;4.45;;
60312;SDS011;46158;52.850;6.970;2023-11-22T04:13:31;10.98;;;4.22;;
60312;SDS011;46158;52.850;6.970;2023-11-22T04:15:57;12.27;;;4.30;;
60312;SDS011;46158;52.850;6.970;2023-11-22T04:18:22;11.80;;;4.40;;
60312;SDS011;46158;52.850;6.970;2023-11-22T04:20:49;11.35;;;4.15;;
60312;SDS011;46158;52.850;6.970;2023-11-22T04:23:15;9.20;;;3.90;;
60312;SDS011;46158;52.850;6.970;2023-11-22T04:25:46;11.02;;;4.00;;
60312;SDS011;46158;52.850;6.970;2023-11-22T04:28:14;9.70;;;4.00;;
60312;SDS011;46158;52.850;6.970;2023-11-22T04:30:40;14.10;;;4.57;;
60312;SDS011;46158;52.850;6.970;2023-11-22T04:33:06;10.57;;;4.00;;
60312;SDS011;46158;52.850;6.970;2023-11-22T04:35:32;10.60;;;4.10;;
60312;SDS011;46158;52.850;6.970;2023-11-22T04:38:02;8.90;;;3.90;;
60312;SDS011;46158;52.850;6.970;2023-11-22T04:40:29;10.93;;;3.90;;
60312;SDS011;46158;52.850;6.970;2023-11-22T04:42:55;10.65;;;4.22;;
60312;SDS011;46158;52.850;6.970;2023-11-22T04:45:20;12.32;;;4.53;;
60312;SDS011;46158;52.850;6.970;2023-11-22T04:47:46;11.52;;;4.32;;
60312;SDS011;46158;52.850;6.970;2023-11-22T04:50:12;10.73;;;3.95;;
60312;SDS011;46158;52.850;6.970;2023-11-22T04:52:38;10.13;;;4.18;;
60312;SDS011;46158;52.850;6.970;2023-11-22T04:55:04;11.70;;;4.20;;
60312;SDS011;46158;52.850;6.970;2023-11-22T04:57:30;9.35;;;3.88;;
60312;SDS011;46158;52.850;6.970;2023-11-22T04:59:56;9.48;;;4.00;;
60312;SDS011;46158;52.850;6.970;2023-11-22T05:02:22;9.23;;;3.67;;
60312;SDS011;46158;52.850;6.970;2023-11-22T05:04:48;10.25;;;3.97;;
60312;SDS011;46158;52.850;6.970;2023-11-22T05:07:15;10.13;;;3.60;;
60312;SDS011;46158;52.850;6.970;2023-11-22T05:09:41;10.90;;;4.10;;
60312;SDS011;46158;52.850;6.970;2023-11-22T05:12:09;10.95;;;4.20;;
60312;SDS011;46158;52.850;6.970;2023-11-22T05:14:35;9.52;;;3.75;;
60312;SDS011;46158;52.850;6.970;2023-11-22T05:17:02;10.18;;;4.03;;
60312;SDS011;46158;52.850;6.970;2023-11-22T05:19:27;9.30;;;3.80;;
60312;SDS011;46158;52.850;6.970;2023-11-22T05:21:53;8.88;;;3.67;;
60312;SDS011;46158;52.850;6.970;2023-11-22T05:24:19;8.25;;;3.35;;
60312;SDS011;46158;52.850;6.970;2023-11-22T05:26:44;9.70;;;3.40;;
60312;SDS011;46158;52.850;6.970;2023-11-22T05:29:10;8.02;;;3.25;;
60312;SDS011;46158;52.850;6.970;2023-11-22T05:31:36;6.47;;;3.05;;
60312;SDS011;46158;52.850;6.970;2023-11-22T05:34:02;5.95;;;2.85;;
60312;SDS011;46158;52.850;6.970;2023-11-22T05:36:28;8.05;;;3.35;;
60312;SDS011;46158;52.850;6.970;2023-11-22T05:38:57;6.85;;;2.90;;
60312;SDS011;46158;52.850;6.970;2023-11-22T05:41:28;8.13;;;3.20;;
60312;SDS011;46158;52.850;6.970;2023-11-22T05:43:54;6.20;;;3.10;;
60312;SDS011;46158;52.850;6.970;2023-11-22T05:46:21;9.50;;;3.15;;
60312;SDS011;46158;52.850;6.970;2023-11-22T05:48:56;8.00;;;3.17;;
60312;SDS011;46158;52.850;6.970;2023-11-22T05:51:21;5.97;;;2.90;;
60312;SDS011;46158;52.850;6.970;2023-11-22T05:53:47;8.40;;;3.00;;
60312;SDS011;46158;52.850;6.970;2023-11-22T05:56:13;5.70;;;2.80;;
60312;SDS011;46158;52.850;6.970;2023-11-22T05:58:40;6.63;;;3.00;;
60312;SDS011;46158;52.850;6.970;2023-11-22T06:01:05;4.78;;;2.55;;
60312;SDS011;46158;52.850;6.970;2023-11-22T06:03:32;6.50;;;3.00;;
60312;SDS011;46158;52.850;6.970;2023-11-22T06:05:59;8.57;;;3.03;;
60312;SDS011;46158;52.850;6.970;2023-11-22T06:08:24;5.40;;;2.55;;
60312;SDS011;46158;52.850;6.970;2023-11-22T06:10:50;7.40;;;3.10;;
60312;SDS011;46158;52.850;6.970;2023-11-22T06:13:18;7.47;;;2.90;;
60312;SDS011;46158;52.850;6.970;2023-11-22T06:15:44;7.57;;;3.10;;
60312;SDS011;46158;52.850;6.970;2023-11-22T06:18:10;7.25;;;2.90;;
60312;SDS011;46158;52.850;6.970;2023-11-22T06:20:39;5.75;;;2.72;;
60312;SDS011;46158;52.850;6.970;2023-11-22T06:23:04;8.52;;;2.80;;
60312;SDS011;46158;52.850;6.970;2023-11-22T06:25:30;5.03;;;2.50;;
60312;SDS011;46158;52.850;6.970;2023-11-22T06:27:56;6.93;;;2.92;;
60312;SDS011;46158;52.850;6.970;2023-11-22T06:30:22;8.32;;;3.30;;
60312;SDS011;46158;52.850;6.970;2023-11-22T06:32:49;5.68;;;2.70;;
60312;SDS011;46158;52.850;6.970;2023-11-22T06:35:16;6.78;;;2.95;;
60312;SDS011;46158;52.850;6.970;2023-11-22T06:37:42;5.55;;;2.65;;
60312;SDS011;46158;52.850;6.970;2023-11-22T06:40:09;4.70;;;2.65;;
60312;SDS011;46158;52.850;6.970;2023-11-22T06:42:39;8.18;;;3.05;;
60312;SDS011;46158;52.850;6.970;2023-11-22T06:45:08;6.50;;;2.90;;
60312;SDS011;46158;52.850;6.970;2023-11-22T06:47:41;10.07;;;3.10;;
60312;SDS011;46158;52.850;6.970;2023-11-22T06:50:08;7.47;;;2.75;;
60312;SDS011;46158;52.850;6.970;2023-11-22T06:52:37;5.28;;;2.70;;
60312;SDS011;46158;52.850;6.970;2023-11-22T06:55:06;6.53;;;2.75;;
60312;SDS011;46158;52.850;6.970;2023-11-22T06:57:33;7.60;;;3.00;;
60312;SDS011;46158;52.850;6.970;2023-11-22T07:00:00;5.72;;;2.70;;
60312;SDS011;46158;52.850;6.970;2023-11-22T07:02:26;8.20;;;3.13;;
60312;SDS011;46158;52.850;6.970;2023-11-22T07:04:52;6.47;;;2.65;;
60312;SDS011;46158;52.850;6.970;2023-11-22T07:07:18;7.55;;;2.97;;
60312;SDS011;46158;52.850;6.970;2023-11-22T07:09:44;8.60;;;3.17;;
60312;SDS011;46158;52.850;6.970;2023-11-22T07:12:11;8.27;;;3.20;;
60312;SDS011;46158;52.850;6.970;2023-11-22T07:14:37;7.65;;;3.08;;
60312;SDS011;46158;52.850;6.970;2023-11-22T07:17:03;10.25;;;3.78;;
60312;SDS011;46158;52.850;6.970;2023-11-22T07:19:32;8.20;;;3.17;;
60312;SDS011;46158;52.850;6.970;2023-11-22T07:21:59;9.60;;;3.78;;
60312;SDS011;46158;52.850;6.970;2023-11-22T07:24:29;10.15;;;3.38;;
60312;SDS011;46158;52.850;6.970;2023-11-22T07:26:59;6.22;;;3.03;;
60312;SDS011;46158;52.850;6.970;2023-11-22T07:29:26;11.05;;;3.60;;
60312;SDS011;46158;52.850;6.970;2023-11-22T07:31:54;9.93;;;3.20;;
60312;SDS011;46158;52.850;6.970;2023-11-22T07:34:21;8.40;;;3.20;;
60312;SDS011;46158;52.850;6.970;2023-11-22T07:36:48;7.63;;;3.20;;
60312;SDS011;46158;52.850;6.970;2023-11-22T07:39:15;7.50;;;2.95;;
60312;SDS011;46158;52.850;6.970;2023-11-22T07:41:44;9.80;;;3.10;;
60312;SDS011;46158;52.850;6.970;2023-11-22T07:44:10;10.75;;;3.00;;
60312;SDS011;46158;52.850;6.970;2023-11-22T07:46:36;8.52;;;3.47;;
60312;SDS011;46158;52.850;6.970;2023-11-22T07:49:02;9.25;;;3.22;;
60312;SDS011;46158;52.850;6.970;2023-11-22T07:51:28;10.98;;;3.75;;
60312;SDS011;46158;52.850;6.970;2023-11-22T07:53:53;9.88;;;3.53;;
60312;SDS011;46158;52.850;6.970;2023-11-22T07:56:20;12.85;;;4.00;;
60312;SDS011;46158;52.850;6.970;2023-11-22T07:58:46;9.55;;;3.42;;
60312;SDS011;46158;52.850;6.970;2023-11-22T08:01:12;10.60;;;4.00;;
60312;SDS011;46158;52.850;6.970;2023-11-22T08:03:39;13.45;;;3.83;;
60312;SDS011;46158;52.850;6.970;2023-11-22T08:06:09;13.15;;;4.20;;
60312;SDS011;46158;52.850;6.970;2023-11-22T08:08:35;12.30;;;4.30;;
60312;SDS011;46158;52.850;6.970;2023-11-22T08:11:04;10.68;;;3.63;;
60312;SDS011;46158;52.850;6.970;2023-11-22T08:13:39;12.98;;;3.90;;
60312;SDS011;46158;52.850;6.970;2023-11-22T08:16:06;9.63;;;3.42;;
60312;SDS011;46158;52.850;6.970;2023-11-22T08:18:31;9.00;;;3.20;;
60312;SDS011;46158;52.850;6.970;2023-11-22T08:20:57;8.85;;;3.13;;
60312;SDS011;46158;52.850;6.970;2023-11-22T08:23:23;9.45;;;3.30;;
60312;SDS011;46158;52.850;6.970;2023-11-22T08:25:52;10.40;;;3.58;;
60312;SDS011;46158;52.850;6.970;2023-11-22T08:28:18;10.85;;;3.22;;
60312;SDS011;46158;52.850;6.970;2023-11-22T08:30:44;13.07;;;3.60;;
60312;SDS011;46158;52.850;6.970;2023-11-22T08:33:10;8.07;;;3.20;;
60312;SDS011;46158;52.850;6.970;2023-11-22T08:35:35;7.65;;;3.20;;
60312;SDS011;46158;52.850;6.970;2023-11-22T08:38:01;8.48;;;3.20;;
60312;SDS011;46158;52.850;6.970;2023-11-22T08:40:28;10.82;;;3.40;;
60312;SDS011;46158;52.850;6.970;2023-11-22T08:42:54;10.07;;;3.58;;
60312;SDS011;46158;52.850;6.970;2023-11-22T08:45:20;15.52;;;3.78;;
60312;SDS011;46158;52.850;6.970;2023-11-22T08:47:46;14.05;;;3.88;;
60312;SDS011;46158;52.850;6.970;2023-11-22T08:50:11;11.45;;;4.05;;
60312;SDS011;46158;52.850;6.970;2023-11-22T08:52:38;15.18;;;4.30;;
60312;SDS011;46158;52.850;6.970;2023-11-22T08:55:05;14.20;;;4.57;;
60312;SDS011;46158;52.850;6.970;2023-11-22T08:57:34;13.07;;;3.70;;
60312;SDS011;46158;52.850;6.970;2023-11-22T09:00:01;13.13;;;4.07;;
60312;SDS011;46158;52.850;6.970;2023-11-22T09:02:31;13.65;;;4.10;;
60312;SDS011;46158;52.850;6.970;2023-11-22T09:04:58;13.93;;;4.38;;
60312;SDS011;46158;52.850;6.970;2023-11-22T09:07:23;13.05;;;4.32;;
60312;SDS011;46158;52.850;6.970;2023-11-22T09:09:49;12.30;;;4.38;;
60312;SDS011;46158;52.850;6.970;2023-11-22T09:12:16;20.98;;;4.70;;
60312;SDS011;46158;52.850;6.970;2023-11-22T09:14:44;12.75;;;4.35;;
60312;SDS011;46158;52.850;6.970;2023-11-22T09:17:11;13.18;;;4.35;;
60312;SDS011;46158;52.850;6.970;2023-11-22T09:19:40;15.07;;;4.33;;
60312;SDS011;46158;52.850;6.970;2023-11-22T09:22:05;14.98;;;4.50;;
60312;SDS011;46158;52.850;6.970;2023-11-22T09:24:32;13.85;;;4.53;;
60312;SDS011;46158;52.850;6.970;2023-11-22T09:26:58;13.60;;;4.50;;
60312;SDS011;46158;52.850;6.970;2023-11-22T09:29:25;14.18;;;4.88;;
60312;SDS011;46158;52.850;6.970;2023-11-22T09:31:51;14.27;;;4.82;;
60312;SDS011;46158;52.850;6.970;2023-11-22T09:34:17;15.18;;;4.50;;
60312;SDS011;46158;52.850;6.970;2023-11-22T09:36:43;14.38;;;4.35;;
60312;SDS011;46158;52.850;6.970;2023-11-22T09:39:09;12.30;;;4.10;;
60312;SDS011;46158;52.850;6.970;2023-11-22T09:41:35;13.82;;;4.80;;
60312;SDS011;46158;52.850;6.970;2023-11-22T09:44:01;14.13;;;4.43;;
60312;SDS011;46158;52.850;6.970;2023-11-22T09:46:27;16.85;;;4.90;;
60312;SDS011;46158;52.850;6.970;2023-11-22T09:48:55;14.10;;;4.60;;
60312;SDS011;46158;52.850;6.970;2023-11-22T09:51:26;14.27;;;4.60;;
60312;SDS011;46158;52.850;6.970;2023-11-22T09:53:58;13.57;;;4.50;;
60312;SDS011;46158;52.850;6.970;2023-11-22T09:56:26;15.15;;;4.68;;
60312;SDS011;46158;52.850;6.970;2023-11-22T09:58:53;13.10;;;4.20;;
60312;SDS011;46158;52.850;6.970;2023-11-22T10:01:21;12.40;;;4.32;;
60312;SDS011;46158;52.850;6.970;2023-11-22T10:03:48;13.25;;;4.30;;
60312;SDS011;46158;52.850;6.970;2023-11-22T10:06:14;14.43;;;4.47;;
60312;SDS011;46158;52.850;6.970;2023-11-22T10:08:40;12.05;;;4.40;;
60312;SDS011;46158;52.850;6.970;2023-11-22T10:11:06;15.30;;;4.78;;
60312;SDS011;46158;52.850;6.970;2023-11-22T10:13:32;11.18;;;3.80;;
60312;SDS011;46158;52.850;6.970;2023-11-22T10:16:14;16.45;;;4.82;;
60312;SDS011;46158;52.850;6.970;2023-11-22T10:18:43;14.23;;;4.35;;
60312;SDS011;46158;52.850;6.970;2023-11-22T10:21:25;14.20;;;4.45;;
60312;SDS011;46158;52.850;6.970;2023-11-22T10:23:55;13.40;;;4.30;;
60312;SDS011;46158;52.850;6.970;2023-11-22T10:26:22;13.55;;;4.40;;
60312;SDS011;46158;52.850;6.970;2023-11-22T10:28:52;13.90;;;4.55;;
60312;SDS011;46158;52.850;6.970;2023-11-22T10:31:19;12.57;;;4.13;;
60312;SDS011;46158;52.850;6.970;2023-11-22T10:33:47;14.10;;;4.40;;
60312;SDS011;46158;52.850;6.970;2023-11-22T10:36:13;12.18;;;4.32;;
60312;SDS011;46158;52.850;6.970;2023-11-22T10:38:40;14.18;;;4.40;;
60312;SDS011;46158;52.850;6.970;2023-11-22T10:41:07;10.85;;;3.90;;
60312;SDS011;46158;52.850;6.970;2023-11-22T10:43:36;13.30;;;4.38;;
60312;SDS011;46158;52.850;6.970;2023-11-22T10:46:03;11.90;;;4.20;;
60312;SDS011;46158;52.850;6.970;2023-11-22T10:48:30;12.52;;;4.22;;
60312;SDS011;46158;52.850;6.970;2023-11-22T10:50:59;16.10;;;4.43;;
60312;SDS011;46158;52.850;6.970;2023-11-22T10:53:36;12.35;;;4.60;;
60312;SDS011;46158;52.850;6.970;2023-11-22T10:58:32;17.33;;;4.95;;
60312;SDS011;46158;52.850;6.970;2023-11-22T11:00:59;14.25;;;4.93;;
60312;SDS011;46158;52.850;6.970;2023-11-22T11:03:33;11.30;;;4.18;;
60312;SDS011;46158;52.850;6.970;2023-11-22T11:06:06;13.13;;;4.28;;
60312;SDS011;46158;52.850;6.970;2023-11-22T11:08:37;18.00;;;4.60;;
60312;SDS011;46158;52.850;6.970;2023-11-22T11:11:06;21.17;;;4.60;;
60312;SDS011;46158;52.850;6.970;2023-11-22T11:13:32;14.00;;;4.68;;
60312;SDS011;46158;52.850;6.970;2023-11-22T11:15:58;17.63;;;4.95;;
60312;SDS011;46158;52.850;6.970;2023-11-22T11:18:25;12.57;;;3.88;;
60312;SDS011;46158;52.850;6.970;2023-11-22T11:23:23;9.95;;;3.40;;
60312;SDS011;46158;52.850;6.970;2023-11-22T11:25:55;14.48;;;4.28;;
60312;SDS011;46158;52.850;6.970;2023-11-22T11:28:22;12.25;;;3.80;;
60312;SDS011;46158;52.850;6.970;2023-11-22T11:30:53;11.70;;;3.88;;
60312;SDS011;46158;52.850;6.970;2023-11-22T11:33:26;17.73;;;5.70;;
60312;SDS011;46158;52.850;6.970;2023-11-22T11:35:52;19.15;;;6.00;;
60312;SDS011;46158;52.850;6.970;2023-11-22T11:38:22;14.40;;;4.30;;
60312;SDS011;46158;52.850;6.970;2023-11-22T11:40:56;15.93;;;4.47;;
60312;SDS011;46158;52.850;6.970;2023-11-22T11:43:53;14.52;;;4.53;;
60312;SDS011;46158;52.850;6.970;2023-11-22T11:46:21;11.00;;;3.97;;
60312;SDS011;46158;52.850;6.970;2023-11-22T11:48:54;12.82;;;4.22;;
60312;SDS011;46158;52.850;6.970;2023-11-22T11:51:24;10.10;;;3.65;;
60312;SDS011;46158;52.850;6.970;2023-11-22T11:53:52;12.88;;;4.03;;
60312;SDS011;46158;52.850;6.970;2023-11-22T11:56:19;11.60;;;3.90;;
60312;SDS011;46158;52.850;6.970;2023-11-22T11:58:45;13.98;;;4.05;;
60312;SDS011;46158;52.850;6.970;2023-11-22T12:01:12;13.15;;;4.05;;
60312;SDS011;46158;52.850;6.970;2023-11-22T12:03:38;13.60;;;3.75;;
60312;SDS011;46158;52.850;6.970;2023-11-22T12:06:05;10.45;;;3.95;;
60312;SDS011;46158;52.850;6.970;2023-11-22T12:08:31;10.88;;;3.60;;
60312;SDS011;46158;52.850;6.970;2023-11-22T12:11:01;12.93;;;3.63;;
60312;SDS011;46158;52.850;6.970;2023-11-22T12:13:29;9.52;;;3.42;;
60312;SDS011;46158;52.850;6.970;2023-11-22T12:15:56;11.38;;;3.58;;
60312;SDS011;46158;52.850;6.970;2023-11-22T12:18:22;11.82;;;3.58;;
60312;SDS011;46158;52.850;6.970;2023-11-22T12:20:55;12.70;;;3.60;;
60312;SDS011;46158;52.850;6.970;2023-11-22T12:23:25;7.22;;;3.20;;
60312;SDS011;46158;52.850;6.970;2023-11-22T12:28:19;9.30;;;3.28;;
60312;SDS011;46158;52.850;6.970;2023-11-22T12:30:48;10.53;;;3.47;;
60312;SDS011;46158;52.850;6.970;2023-11-22T12:33:16;11.70;;;3.40;;
60312;SDS011;46158;52.850;6.970;2023-11-22T12:35:43;11.25;;;3.30;;
60312;SDS011;46158;52.850;6.970;2023-11-22T12:38:09;8.38;;;3.33;;
60312;SDS011;46158;52.850;6.970;2023-11-22T12:40:35;7.57;;;2.97;;
60312;SDS011;46158;52.850;6.970;2023-11-22T12:43:02;9.13;;;3.10;;
60312;SDS011;46158;52.850;6.970;2023-11-22T12:45:33;10.57;;;3.13;;
60312;SDS011;46158;52.850;6.970;2023-11-22T12:48:19;8.98;;;3.30;;
60312;SDS011;46158;52.850;6.970;2023-11-22T12:50:49;7.85;;;3.20;;
60312;SDS011;46158;52.850;6.970;2023-11-22T12:53:16;10.15;;;2.88;;
60312;SDS011;46158;52.850;6.970;2023-11-22T12:55:45;10.82;;;3.60;;
60312;SDS011;46158;52.850;6.970;2023-11-22T12:58:14;7.95;;;2.90;;
60312;SDS011;46158;52.850;6.970;2023-11-22T13:00:40;5.53;;;2.65;;
60312;SDS011;46158;52.850;6.970;2023-11-22T13:03:07;7.43;;;3.00;;
60312;SDS011;46158;52.850;6.970;2023-11-22T13:05:35;8.05;;;3.00;;
60312;SDS011;46158;52.850;6.970;2023-11-22T13:08:02;6.43;;;2.88;;
60312;SDS011;46158;52.850;6.970;2023-11-22T13:10:29;9.23;;;3.15;;
60312;SDS011;46158;52.850;6.970;2023-11-22T13:12:55;10.55;;;3.03;;
60312;SDS011;46158;52.850;6.970;2023-11-22T13:15:21;7.25;;;2.80;;
60312;SDS011;46158;52.850;6.970;2023-11-22T13:17:55;9.18;;;2.90;;
60312;SDS011;46158;52.850;6.970;2023-11-22T13:20:24;7.65;;;2.95;;
60312;SDS011;46158;52.850;6.970;2023-11-22T13:22:54;7.60;;;3.00;;
60312;SDS011;46158;52.850;6.970;2023-11-22T13:25:23;7.95;;;3.10;;
60312;SDS011;46158;52.850;6.970;2023-11-22T13:27:49;8.38;;;3.10;;
60312;SDS011;46158;52.850;6.970;2023-11-22T13:30:16;7.32;;;2.92;;
60312;SDS011;46158;52.850;6.970;2023-11-22T13:32:45;8.75;;;3.25;;
60312;SDS011;46158;52.850;6.970;2023-11-22T13:35:12;10.27;;;3.20;;
60312;SDS011;46158;52.850;6.970;2023-11-22T13:37:42;8.27;;;3.20;;
60312;SDS011;46158;52.850;6.970;2023-11-22T13:40:12;8.80;;;2.97;;
60312;SDS011;46158;52.850;6.970;2023-11-22T13:42:42;8.48;;;3.03;;
60312;SDS011;46158;52.850;6.970;2023-11-22T13:45:09;6.18;;;2.83;;
60312;SDS011;46158;52.850;6.970;2023-11-22T13:47:40;8.43;;;3.22;;
60312;SDS011;46158;52.850;6.970;2023-11-22T13:50:08;7.60;;;3.08;;
60312;SDS011;46158;52.850;6.970;2023-11-22T13:52:34;8.23;;;2.95;;
60312;SDS011;46158;52.850;6.970;2023-11-22T13:55:00;9.38;;;3.25;;
60312;SDS011;46158;52.850;6.970;2023-11-22T13:57:30;7.45;;;2.90;;
60312;SDS011;46158;52.850;6.970;2023-11-22T13:59:57;9.60;;;3.42;;
60312;SDS011;46158;52.850;6.970;2023-11-22T14:02:23;6.50;;;2.70;;
60312;SDS011;46158;52.850;6.970;2023-11-22T14:04:49;6.97;;;2.97;;
60312;SDS011;46158;52.850;6.970;2023-11-22T14:07:16;8.20;;;3.00;;
60312;SDS011;46158;52.850;6.970;2023-11-22T14:09:42;8.93;;;2.80;;
60312;SDS011;46158;52.850;6.970;2023-11-22T14:12:11;7.78;;;3.20;;
60312;SDS011;46158;52.850;6.970;2023-11-22T14:14:37;5.15;;;2.60;;
60312;SDS011;46158;52.850;6.970;2023-11-22T14:17:03;5.07;;;2.70;;
60312;SDS011;46158;52.850;6.970;2023-11-22T14:19:29;5.95;;;2.60;;
60312;SDS011;46158;52.850;6.970;2023-11-22T14:21:55;7.03;;;2.92;;
60312;SDS011;46158;52.850;6.970;2023-11-22T14:24:20;6.22;;;2.90;;
60312;SDS011;46158;52.850;6.970;2023-11-22T14:26:46;7.13;;;3.00;;
60312;SDS011;46158;52.850;6.970;2023-11-22T14:29:14;8.50;;;2.88;;
60312;SDS011;46158;52.850;6.970;2023-11-22T14:31:41;6.90;;;2.80;;
60312;SDS011;46158;52.850;6.970;2023-11-22T14:34:06;7.38;;;2.70;;
60312;SDS011;46158;52.850;6.970;2023-11-22T14:36:32;8.10;;;2.90;;
60312;SDS011;46158;52.850;6.970;2023-11-22T14:38:58;7.63;;;2.85;;
60312;SDS011;46158;52.850;6.970;2023-11-22T14:41:24;7.70;;;3.00;;
60312;SDS011;46158;52.850;6.970;2023-11-22T14:43:50;5.65;;;2.70;;
60312;SDS011;46158;52.850;6.970;2023-11-22T14:46:15;8.20;;;2.90;;
60312;SDS011;46158;52.850;6.970;2023-11-22T14:48:42;4.90;;;2.67;;